Time;durP1;ratioP1;P1;durP2;ratioP2;P2;SDS_P1;SDS_P2;PMS_P1;PMS_P2;Temp;Humidity;BMP_temperature;BMP_pressure;BME280_temperature;BME280_humidity;BME280_pressure;Samples;Min_cycle;Max_cycle;Signal;HPM_P1;HPM_P2
2021/07/12 00:02:00;;;;;;;0.28;0.28;;;;;;;28.23;38.75;100227.13;5031437;28;20586;-54
2021/07/12 00:04:26;;;;;;;0.25;0.25;;;;;;;28.24;39.08;100236.84;5031114;28;20049;-53
2021/07/12 00:06:52;;;;;;;0.20;0.20;;;;;;;28.22;39.18;100232.69;5031392;28;20034;-54
2021/07/12 00:09:17;;;;;;;0.28;0.28;;;;;;;28.26;39.13;100228.59;5030861;28;20099;-53
2021/07/12 00:11:44;;;;;;;0.25;0.25;;;;;;;28.22;38.75;100238.06;5029954;28;20033;-54
2021/07/12 00:14:09;;;;;;;0.30;0.30;;;;;;;28.25;38.81;100241.19;5030655;28;20042;-53
2021/07/12 00:16:35;;;;;;;0.08;0.08;;;;;;;28.26;38.80;100239.34;5031064;28;20048;-54
2021/07/12 00:19:02;;;;;;;0.13;0.13;;;;;;;28.25;38.81;100235.00;5046300;28;20041;-54
2021/07/12 00:21:28;;;;;;;0.30;0.30;;;;;;;28.23;38.81;100234.34;5029541;28;20964;-55
2021/07/12 00:23:53;;;;;;;0.30;0.30;;;;;;;28.24;38.84;100236.03;5030805;28;20052;-51
2021/07/12 00:26:19;;;;;;;0.28;0.28;;;;;;;28.18;39.30;100223.31;5030695;28;20557;-52
2021/07/12 00:28:45;;;;;;;0.20;0.20;;;;;;;28.19;39.15;100230.38;5030670;28;20387;-53
2021/07/12 00:31:11;;;;;;;0.75;0.75;;;;;;;28.21;39.10;100231.00;5030686;28;20114;-52
2021/07/12 00:33:39;;;;;;;0.13;0.13;;;;;;;28.18;39.09;100234.06;5030489;28;20183;-54
2021/07/12 00:36:06;;;;;;;0.10;0.10;;;;;;;28.16;39.23;100241.50;5030639;28;20100;-53
2021/07/12 00:38:33;;;;;;;0.05;0.05;;;;;;;28.14;39.31;100240.84;5030451;28;20042;-53
2021/07/12 00:40:59;;;;;;;0.40;0.40;;;;;;;28.16;39.02;100238.81;5029418;28;20044;-52
2021/07/12 00:43:25;;;;;;;0.28;0.28;;;;;;;28.17;39.19;100245.84;5029126;28;20539;-54
2021/07/12 00:45:52;;;;;;;0.30;0.30;;;;;;;28.17;38.99;100240.47;5030483;28;20041;-52
2021/07/12 00:48:18;;;;;;;0.20;0.20;;;;;;;28.17;39.14;100240.47;5030213;28;20306;-53
2021/07/12 00:50:49;;;;;;;0.10;0.10;;;;;;;28.17;39.18;100243.16;5045854;28;20064;-51
2021/07/12 00:53:16;;;;;;;0.60;0.60;;;;;;;28.15;39.24;100237.13;5030062;28;20124;-53
2021/07/12 00:55:48;;;;;;;0.10;0.10;;;;;;;28.15;39.04;100237.13;5029091;28;20041;-52
2021/07/12 00:58:19;;;;;;;0.20;0.20;;;;;;;28.13;39.08;100239.19;5028804;28;20048;-53
2021/07/12 01:00:47;;;;;;;0.10;0.10;;;;;;;28.10;39.06;100240.41;5030319;28;20112;-55
2021/07/12 01:03:14;;;;;;;0.30;0.30;;;;;;;28.16;39.18;100250.38;5030059;28;20072;-53
2021/07/12 01:05:41;;;;;;;0.28;0.28;;;;;;;28.14;39.36;100247.03;5029761;28;20049;-49
2021/07/12 01:08:07;;;;;;;0.10;0.10;;;;;;;28.17;39.14;100254.75;5045459;28;20576;-51
2021/07/12 01:10:39;;;;;;;0.20;0.20;;;;;;;28.18;39.45;100252.88;5028905;28;20048;-50
2021/07/12 01:13:17;;;;;;;0.20;0.20;;;;;;;28.19;39.09;100259.91;5029972;28;20037;-52
2021/07/12 01:15:49;;;;;;;0.10;0.10;;;;;;;28.20;39.02;100261.59;5028700;28;20048;-52
2021/07/12 01:18:27;;;;;;;0.17;0.17;;;;;;;28.20;39.06;100257.06;5028599;28;20041;-52
2021/07/12 01:21:37;;;;;;;0.20;0.20;;;;;;;28.20;39.41;100256.22;5029922;28;20037;-53
2021/07/12 01:24:30;;;;;;;0.32;0.32;;;;;;;28.19;39.58;100259.91;5028577;28;20048;-56
2021/07/12 01:27:15;;;;;;;0.10;0.10;;;;;;;28.20;39.23;100265.13;5028749;28;20117;-56
2021/07/12 01:29:56;;;;;;;0.65;0.65;;;;;;;28.40;39.10;100271.53;5029788;28;20047;-55
2021/07/12 01:33:01;;;;;;;0.30;0.30;;;;;;;28.84;38.14;100265.22;5029619;28;20053;-53
2021/07/12 01:35:44;;;;;;;0.05;0.05;;;;;;;29.22;37.33;100269.28;5028264;28;20049;-53
2021/07/12 01:38:34;;;;;;;0.10;0.10;;;;;;;29.52;36.95;100269.97;5012233;28;20045;-57
2021/07/12 01:41:23;;;;;;;0.30;0.30;;;;;;;29.78;36.51;100254.00;5029865;28;20075;-54
2021/07/12 01:44:07;;;;;;;0.55;0.52;;;;;;;30.13;35.94;100264.78;5029914;28;20052;-54
2021/07/12 01:46:44;;;;;;;0.10;0.10;;;;;;;30.38;35.41;100265.91;5028331;28;20046;-52
2021/07/12 01:49:53;;;;;;;0.10;0.10;;;;;;;30.64;34.95;100267.88;5029729;28;20041;-56
2021/07/12 01:52:41;;;;;;;0.17;0.17;;;;;;;30.89;34.61;100275.19;5027788;28;20057;-53
2021/07/12 01:55:11;;;;;;;0.20;0.20;;;;;;;31.11;34.18;100283.16;5012221;28;20096;-53
2021/07/12 01:57:55;;;;;;;0.10;0.10;;;;;;;31.31;33.82;100273.19;5028607;28;20418;-56
2021/07/12 02:00:24;;;;;;;0.10;0.10;;;;;;;31.54;33.39;100281.72;5028431;28;20071;-56
2021/07/12 02:02:58;;;;;;;0.28;0.28;;;;;;;31.80;33.15;100288.97;5028262;28;20084;-55
2021/07/12 02:05:32;;;;;;;0.10;0.10;;;;;;;31.95;32.57;100276.84;5028287;28;20073;-55
2021/07/12 02:08:01;;;;;;;0.35;0.35;;;;;;;32.19;32.27;100285.34;5012287;28;20065;-54
2021/07/12 02:10:28;;;;;;;0.10;0.10;;;;;;;32.35;31.95;100282.16;5012062;28;20099;-53
2021/07/12 02:12:59;;;;;;;0.75;0.75;;;;;;;32.54;31.86;100281.22;5028186;28;20108;-54
2021/07/12 02:15:25;;;;;;;0.25;0.25;;;;;;;32.66;31.49;100284.13;5027948;28;20045;-53
2021/07/12 02:17:56;;;;;;;0.30;0.30;;;;;;;32.78;31.55;100288.63;5015316;28;20042;-55
2021/07/12 02:20:33;;;;;;;0.20;0.20;;;;;;;32.87;31.32;100275.63;5018571;28;20041;-54
2021/07/12 02:23:00;;;;;;;0.30;0.30;;;;;;;33.02;30.97;100276.97;5015531;28;20403;-54
2021/07/12 02:25:27;;;;;;;0.25;0.25;;;;;;;33.20;30.58;100286.25;4999595;28;20411;-54
2021/07/12 02:27:53;;;;;;;1.13;0.52;;;;;;;33.32;30.65;100284.47;5015299;28;20041;-55
2021/07/12 02:30:21;;;;;;;0.10;0.10;;;;;;;33.47;30.30;100276.88;5031585;28;20041;-55
2021/07/12 02:32:48;;;;;;;0.10;0.10;;;;;;;33.67;29.98;100282.13;5032400;28;20427;-53
2021/07/12 02:35:15;;;;;;;0.10;0.10;;;;;;;33.72;29.99;100263.31;5015209;28;20053;-56
2021/07/12 02:37:44;;;;;;;;;;;;;;;33.99;29.70;100281.78;5032121;28;20041;-50
2021/07/12 02:40:13;;;;;;;0.17;0.17;;;;;;;34.15;29.34;100284.94;5031825;28;19921;-54
2021/07/12 02:42:52;;;;;;;0.30;0.30;;;;;;;34.27;29.08;100275.00;5031787;28;20045;-56
2021/07/12 02:45:18;;;;;;;0.10;0.10;;;;;;;34.40;29.16;100296.53;5031438;28;20094;-55
2021/07/12 02:47:47;;;;;;;0.20;0.20;;;;;;;34.53;28.49;100288.22;5031618;28;20169;-54
2021/07/12 02:50:33;;;;;;;0.30;0.30;;;;;;;34.66;28.48;100287.22;5031655;28;20046;-54
2021/07/12 02:53:24;;;;;;;0.10;0.10;;;;;;;34.80;28.22;100292.25;5031496;28;20041;-54
2021/07/12 02:56:10;;;;;;;0.13;0.13;;;;;;;34.88;27.96;100297.31;5018247;28;20148;-52
2021/07/12 02:58:58;;;;;;;0.10;0.10;;;;;;;35.00;28.13;100294.66;5031545;28;20041;-54
2021/07/12 03:01:45;;;;;;;0.30;0.30;;;;;;;35.11;27.80;100295.78;5031529;28;20056;-53
2021/07/12 03:04:31;;;;;;;0.22;0.22;;;;;;;35.20;27.89;100299.81;5032211;28;20045;-54
2021/07/12 03:07:21;;;;;;;0.20;0.20;;;;;;;35.35;27.62;100297.47;5031376;28;20042;-57
2021/07/12 03:10:19;;;;;;;0.20;0.20;;;;;;;35.53;27.13;100300.09;5018012;28;20468;-55
2021/07/12 03:13:07;;;;;;;0.10;0.10;;;;;;;35.68;27.19;100296.91;5032210;28;20087;-53
2021/07/12 03:15:53;;;;;;;0.10;0.10;;;;;;;35.84;26.80;100302.47;5031188;28;20056;-53
2021/07/12 03:18:46;;;;;;;0.10;0.10;;;;;;;35.90;26.40;100298.78;5031922;28;20045;-54
2021/07/12 03:21:31;;;;;;;0.10;0.10;;;;;;;36.02;26.33;100304.22;5031176;28;20084;-54
2021/07/12 03:24:17;;;;;;;0.20;0.20;;;;;;;36.19;26.18;100315.22;5017296;28;20048;-54
2021/07/12 03:27:04;;;;;;;0.30;0.30;;;;;;;36.28;26.04;100302.88;5017112;28;20048;-55
2021/07/12 03:29:51;;;;;;;0.30;0.30;;;;;;;36.32;25.71;100298.63;5017369;28;20080;-55
2021/07/12 03:32:36;;;;;;;0.70;0.70;;;;;;;36.45;25.52;100298.34;5030719;28;20128;-54
2021/07/12 03:35:25;;;;;;;0.10;0.10;;;;;;;36.63;25.30;100298.19;5030329;28;20072;-54
2021/07/12 03:38:16;;;;;;;0.20;0.20;;;;;;;36.78;25.33;100303.88;5017337;28;20041;-53
2021/07/12 03:41:02;;;;;;;0.45;0.45;;;;;;;36.74;25.17;100291.88;5031821;28;20092;-53
2021/07/12 03:43:48;;;;;;;0.15;0.15;;;;;;;36.98;25.18;100308.88;5030583;28;20549;-54
2021/07/12 03:46:35;;;;;;;0.35;0.35;;;;;;;37.02;24.84;100305.47;5030455;28;20053;-51
2021/07/12 03:49:22;;;;;;;0.20;0.20;;;;;;;37.10;24.81;100300.69;5031386;28;20049;-52
2021/07/12 03:52:09;;;;;;;0.10;0.10;;;;;;;37.21;24.54;100302.50;5031573;28;20046;-51
2021/07/12 03:54:55;;;;;;;0.10;0.10;;;;;;;37.21;24.52;100297.03;5030217;28;20056;-54
2021/07/12 03:57:40;;;;;;;0.20;0.20;;;;;;;37.27;24.51;100307.78;5031317;28;20049;-54
2021/07/12 04:00:28;;;;;;;0.40;0.40;;;;;;;37.30;24.32;100307.31;5031200;28;20100;-55
2021/07/12 04:03:14;;;;;;;0.10;0.10;;;;;;;37.36;24.17;100302.75;5031436;28;20099;-55
2021/07/12 04:05:59;;;;;;;0.20;0.20;;;;;;;37.46;24.20;100305.69;5031288;28;20048;-55
2021/07/12 04:08:46;;;;;;;0.10;0.10;;;;;;;37.47;24.16;100290.97;5030940;28;20091;-54
2021/07/12 04:11:34;;;;;;;0.30;0.30;;;;;;;37.53;24.21;100317.25;5030960;28;20186;-53
2021/07/12 04:14:20;;;;;;;0.10;0.10;;;;;;;37.60;24.04;100312.41;5031038;28;20421;-55
2021/07/12 04:17:05;;;;;;;0.20;0.20;;;;;;;37.60;24.10;100311.63;5031055;28;20053;-52
2021/07/12 04:19:51;;;;;;;0.35;0.35;;;;;;;37.69;23.83;100304.66;5030935;28;20095;-55
2021/07/12 04:22:37;;;;;;;0.20;0.20;;;;;;;37.86;23.92;100310.91;5030739;28;20499;-55
2021/07/12 04:25:23;;;;;;;0.17;0.17;;;;;;;38.01;23.57;100303.78;5030729;28;20124;-53
2021/07/12 04:28:09;;;;;;;0.17;0.17;;;;;;;38.09;23.11;100299.78;5030858;28;20502;-55
2021/07/12 04:30:55;;;;;;;0.20;0.20;;;;;;;38.11;23.08;100296.81;5030703;28;20038;-55
2021/07/12 04:33:40;;;;;;;1.08;1.08;;;;;;;38.18;23.31;100306.47;5030261;28;20231;-54
2021/07/12 04:36:26;;;;;;;1.27;1.27;;;;;;;38.26;23.41;100294.25;5030430;28;20060;-56
2021/07/12 04:39:12;;;;;;;0.15;0.15;;;;;;;38.34;22.69;100296.56;5029854;28;20123;-55
2021/07/12 04:41:58;;;;;;;3.30;0.85;;;;;;;38.44;22.76;100293.97;5030495;28;20049;-55
2021/07/12 04:44:43;;;;;;;0.25;0.25;;;;;;;38.51;22.75;100297.34;5030367;28;20041;-55
2021/07/12 04:47:30;;;;;;;0.15;0.15;;;;;;;38.53;23.20;100289.69;5030299;28;20399;-55
2021/07/12 04:50:17;;;;;;;0.55;0.55;;;;;;;38.54;22.82;100280.44;5030420;28;20565;-55
2021/07/12 04:53:03;;;;;;;0.22;0.22;;;;;;;38.66;22.73;100283.84;5030303;28;20046;-55
2021/07/12 04:55:48;;;;;;;0.10;0.10;;;;;;;38.66;22.51;100278.38;5029218;28;20071;-55
2021/07/12 04:58:41;;;;;;;0.10;0.10;;;;;;;38.65;22.93;100268.53;5028988;28;20055;-55
2021/07/12 05:01:27;;;;;;;0.10;0.10;;;;;;;38.74;22.96;100282.56;5030110;28;20430;-55
2021/07/12 05:04:13;;;;;;;0.13;0.13;;;;;;;38.78;22.86;100270.84;5030174;28;20084;-55
2021/07/12 05:07:00;;;;;;;0.10;0.10;;;;;;;38.80;22.81;100276.91;5030142;28;20083;-55
2021/07/12 05:09:45;;;;;;;0.17;0.17;;;;;;;38.74;22.50;100264.25;5030012;28;20049;-55
2021/07/12 05:12:32;;;;;;;0.10;0.10;;;;;;;38.85;22.79;100276.94;5029958;28;20116;-53
2021/07/12 05:15:17;;;;;;;0.20;0.20;;;;;;;38.86;22.87;100284.06;5028856;28;20050;-54
2021/07/12 05:18:03;;;;;;;0.10;0.10;;;;;;;38.76;22.98;100273.00;5029953;28;20049;-55
2021/07/12 05:20:51;;;;;;;0.10;0.10;;;;;;;38.79;22.54;100282.59;5028707;28;20148;-56
2021/07/12 05:23:37;;;;;;;0.10;0.10;;;;;;;38.77;22.48;100285.59;5029619;28;20099;-53
2021/07/12 05:26:23;;;;;;;0.10;0.10;;;;;;;38.73;22.68;100287.19;5029944;28;20458;-53
2021/07/12 05:28:49;;;;;;;0.15;0.15;;;;;;;38.74;22.63;100285.28;5029628;28;20502;-56
2021/07/12 05:31:15;;;;;;;0.15;0.15;;;;;;;38.72;23.08;100282.78;5028470;28;20052;-54
2021/07/12 05:33:41;;;;;;;0.22;0.22;;;;;;;38.78;22.93;100281.75;5029247;28;20129;-55
2021/07/12 05:36:07;;;;;;;0.10;0.10;;;;;;;38.65;22.69;100293.09;5029708;28;20037;-54
2021/07/12 05:38:33;;;;;;;0.20;0.20;;;;;;;38.67;22.90;100285.50;5029337;28;20081;-54
2021/07/12 05:40:59;;;;;;;0.30;0.30;;;;;;;38.68;22.69;100287.13;5029781;28;20459;-56
2021/07/12 05:43:25;;;;;;;0.13;0.13;;;;;;;38.70;22.91;100278.69;5029660;28;20047;-54
2021/07/12 05:45:51;;;;;;;0.20;0.20;;;;;;;38.69;22.93;100291.50;5028175;28;20033;-55
2021/07/12 05:48:17;;;;;;;0.30;0.30;;;;;;;38.71;22.86;100283.91;5029659;28;20124;-54
2021/07/12 05:50:43;;;;;;;0.10;0.10;;;;;;;38.72;22.41;100285.53;5030207;28;20471;-54
2021/07/12 05:53:09;;;;;;;0.10;0.10;;;;;;;38.78;22.33;100280.97;5033789;28;20044;-55
2021/07/12 05:55:35;;;;;;;0.10;0.10;;;;;;;38.82;22.26;100288.38;5033219;28;20099;-52
2021/07/12 05:58:01;;;;;;;0.17;0.17;;;;;;;38.81;22.27;100286.72;5033539;28;20112;-53
2021/07/12 06:00:27;;;;;;;0.20;0.20;;;;;;;38.77;22.24;100280.13;5033401;28;20132;-56
2021/07/12 06:02:53;;;;;;;0.10;0.10;;;;;;;38.80;22.55;100284.25;5033697;28;20099;-54
2021/07/12 06:05:20;;;;;;;0.10;0.10;;;;;;;38.78;22.06;100292.69;5033384;28;20056;-55
2021/07/12 06:07:47;;;;;;;0.47;0.47;;;;;;;38.66;22.16;100292.03;5033290;28;20046;-55
2021/07/12 06:10:13;;;;;;;0.17;0.17;;;;;;;38.65;22.23;100287.63;5033326;28;20240;-55
2021/07/12 06:12:40;;;;;;;0.10;0.10;;;;;;;38.69;22.44;100294.25;5033051;28;20112;-55
2021/07/12 06:15:06;;;;;;;0.10;0.10;;;;;;;38.67;22.37;100290.94;5033228;28;20053;-54
2021/07/12 06:17:33;;;;;;;0.20;0.20;;;;;;;38.70;21.92;100290.44;5033018;28;20041;-54
2021/07/12 06:19:59;;;;;;;0.20;0.20;;;;;;;38.68;21.76;100292.56;5033115;28;20045;-54
2021/07/12 06:22:26;;;;;;;0.20;0.20;;;;;;;38.66;21.68;100286.56;5033186;28;20116;-56
2021/07/12 06:24:52;;;;;;;0.10;0.10;;;;;;;38.70;21.66;100290.44;5032849;28;20080;-56
2021/07/12 06:27:18;;;;;;;0.10;0.10;;;;;;;38.58;22.16;100281.56;5032982;28;20106;-53
2021/07/12 06:29:46;;;;;;;0.30;0.30;;;;;;;38.60;21.55;100289.50;5031378;28;20049;-54
2021/07/12 06:32:12;;;;;;;0.10;0.10;;;;;;;38.74;21.89;100280.66;5031608;28;20045;-55
2021/07/12 06:34:38;;;;;;;0.10;0.10;;;;;;;39.37;20.78;100281.78;5032348;28;20141;-54
2021/07/12 06:37:04;;;;;;;0.40;0.40;;;;;;;41.98;18.44;100271.72;5031582;28;20045;-53
2021/07/12 06:39:31;;;;;;;0.30;0.30;;;;;;;46.39;14.51;100283.22;5031320;28;20514;-54
2021/07/12 06:41:58;;;;;;;0.60;0.60;;;;;;;49.47;12.04;100277.16;5031545;28;20084;-53
2021/07/12 06:44:24;;;;;;;0.60;0.60;;;;;;;51.16;10.78;100278.63;5032693;28;20095;-54
2021/07/12 06:46:51;;;;;;;0.35;0.35;;;;;;;51.99;10.02;100282.69;5047821;28;20045;-54
2021/07/12 06:49:20;;;;;;;0.30;0.30;;;;;;;52.51;9.50;100281.91;5032603;28;20049;-57
2021/07/12 06:51:45;;;;;;;0.40;0.40;;;;;;;52.86;9.53;100276.56;5031177;28;20052;-54
2021/07/12 06:54:13;;;;;;;0.30;0.30;;;;;;;52.70;9.63;100279.31;5032565;28;20045;-56
2021/07/12 06:56:39;;;;;;;0.40;0.40;;;;;;;52.52;9.49;100277.97;5032198;28;20423;-54
2021/07/12 06:59:05;;;;;;;0.50;0.50;;;;;;;52.03;9.86;100280.03;5032354;28;20499;-55
2021/07/12 07:01:31;;;;;;;0.10;0.10;;;;;;;50.47;10.76;100276.44;5032327;28;20053;-56
2021/07/12 07:03:57;;;;;;;0.10;0.10;;;;;;;46.81;13.30;100270.13;5031495;28;20641;-53
2021/07/12 07:06:23;;;;;;;0.10;0.10;;;;;;;43.51;15.87;100275.94;5032527;28;20087;-55
2021/07/12 07:08:50;;;;;;;0.10;0.10;;;;;;;41.43;18.12;100264.41;5030736;28;20033;-54
2021/07/12 07:11:17;;;;;;;0.20;0.20;;;;;;;40.25;19.28;100277.41;5032313;28;20067;-55
2021/07/12 07:13:47;;;;;;;0.10;0.10;;;;;;;39.45;20.40;100270.34;5030834;28;20045;-54
2021/07/12 07:16:13;;;;;;;0.20;0.20;;;;;;;38.91;20.88;100272.34;5032129;28;20422;-55
2021/07/12 07:18:39;;;;;;;0.20;0.20;;;;;;;38.40;21.56;100262.81;5030763;28;20048;-54
2021/07/12 07:21:08;;;;;;;0.20;0.20;;;;;;;38.13;22.06;100275.53;5030895;28;20407;-55
2021/07/12 07:23:34;;;;;;;0.15;0.15;;;;;;;37.90;22.71;100282.88;5031849;28;20124;-55
2021/07/12 07:26:01;;;;;;;0.10;0.10;;;;;;;37.68;22.76;100273.84;5031884;28;20661;-55
2021/07/12 07:28:27;;;;;;;0.20;0.20;;;;;;;37.50;22.81;100274.94;5032088;28;20422;-55
2021/07/12 07:30:53;;;;;;;0.20;0.20;;;;;;;37.33;23.13;100284.19;5030420;28;20557;-56
2021/07/12 07:33:21;;;;;;;0.30;0.30;;;;;;;37.20;23.16;100288.06;5031915;28;20041;-55
2021/07/12 07:35:48;;;;;;;0.25;0.25;;;;;;;37.05;23.76;100285.91;5031348;28;20059;-52
2021/07/12 07:38:14;;;;;;;0.10;0.10;;;;;;;36.91;23.20;100276.34;5030519;28;20413;-55
2021/07/12 07:40:40;;;;;;;0.10;0.10;;;;;;;36.85;23.52;100282.78;5031528;28;20079;-56
2021/07/12 07:43:06;;;;;;;0.00;0.00;;;;;;;36.75;23.78;100279.09;5031815;28;20041;-55
2021/07/12 07:45:32;;;;;;;0.20;0.20;;;;;;;36.64;23.92;100279.94;5030606;28;20133;-55
2021/07/12 07:47:58;;;;;;;0.25;0.25;;;;;;;36.53;24.18;100265.28;5031359;28;20037;-55
2021/07/12 07:50:24;;;;;;;0.10;0.10;;;;;;;36.41;24.10;100269.97;5030291;28;20451;-54
2021/07/12 07:52:50;;;;;;;0.10;0.10;;;;;;;36.32;24.48;100277.66;5031458;28;20128;-55
2021/07/12 07:55:16;;;;;;;0.00;0.00;;;;;;;36.17;24.66;100262.94;5031437;28;20076;-55
2021/07/12 07:57:43;;;;;;;0.20;0.20;;;;;;;36.13;24.57;100278.91;5030130;28;20041;-56
2021/07/12 08:00:11;;;;;;;0.00;0.00;;;;;;;36.03;24.82;100263.19;5031493;28;20041;-53
2021/07/12 08:02:41;;;;;;;0.10;0.10;;;;;;;35.96;24.97;100275.28;5031198;28;20045;-56
2021/07/12 08:05:08;;;;;;;0.03;0.03;;;;;;;35.86;25.00;100272.31;5031219;28;20073;-55
2021/07/12 08:07:34;;;;;;;0.10;0.10;;;;;;;35.74;24.97;100269.59;5030098;28;20467;-53
2021/07/12 08:10:00;;;;;;;0.17;0.17;;;;;;;35.69;25.48;100263.25;5031272;28;20098;-54
2021/07/12 08:12:26;;;;;;;0.08;0.08;;;;;;;35.59;25.16;100276.59;5031240;28;20053;-54
2021/07/12 08:14:52;;;;;;;0.10;0.10;;;;;;;35.49;25.58;100267.13;5028467;28;20490;-54
2021/07/12 08:17:18;;;;;;;0.10;0.10;;;;;;;35.42;25.33;100266.41;5031149;28;20038;-55
2021/07/12 08:19:44;;;;;;;0.10;0.10;;;;;;;35.35;25.89;100265.69;5030650;28;20037;-54
2021/07/12 08:22:10;;;;;;;0.10;0.10;;;;;;;35.23;25.94;100255.88;5030919;28;20072;-55
2021/07/12 08:24:36;;;;;;;0.10;0.10;;;;;;;35.19;26.29;100260.97;5030609;28;20084;-56
2021/07/12 08:27:02;;;;;;;0.20;0.20;;;;;;;35.11;26.15;100261.31;5030971;28;20038;-52
2021/07/12 08:29:29;;;;;;;0.00;0.00;;;;;;;35.04;26.20;100263.28;5030786;28;20038;-54
2021/07/12 08:31:55;;;;;;;0.10;0.10;;;;;;;34.92;26.13;100260.53;5030436;28;20529;-55
2021/07/12 08:34:20;;;;;;;0.00;0.00;;;;;;;34.81;26.36;100241.50;5045844;28;20057;-55
2021/07/12 08:36:47;;;;;;;0.00;0.00;;;;;;;34.81;26.35;100252.38;5029091;28;20041;-55
2021/07/12 08:39:13;;;;;;;0.00;0.00;;;;;;;34.72;26.47;100265.41;5030538;28;20041;-55
2021/07/12 08:41:39;;;;;;;0.20;0.20;;;;;;;34.64;26.70;100246.75;5030421;28;20041;-55
2021/07/12 08:44:06;;;;;;;0.10;0.10;;;;;;;34.57;26.99;100254.13;5030608;28;20180;-54
2021/07/12 08:46:33;;;;;;;0.10;0.10;;;;;;;34.47;27.09;100249.28;5030566;28;20069;-54
2021/07/12 08:48:59;;;;;;;0.40;0.20;;;;;;;34.41;26.78;100241.22;5029059;28;20041;-55
2021/07/12 08:51:25;;;;;;;0.10;0.10;;;;;;;34.33;26.90;100244.25;5030350;28;20172;-56
2021/07/12 08:53:51;;;;;;;0.00;0.00;;;;;;;34.15;26.95;100222.59;5030236;28;20115;-56
2021/07/12 08:56:19;;;;;;;0.03;0.03;;;;;;;34.19;27.14;100242.78;5028987;28;20042;-57
2021/07/12 08:58:45;;;;;;;0.00;0.00;;;;;;;34.13;26.98;100241.78;5030014;28;20503;-57
2021/07/12 09:01:11;;;;;;;0.10;0.10;;;;;;;34.08;27.15;100240.78;5030189;28;20060;-57
2021/07/12 09:03:38;;;;;;;0.00;0.00;;;;;;;34.01;27.27;100241.69;5030486;28;20499;-56
2021/07/12 09:06:10;;;;;;;0.00;0.00;;;;;;;33.97;27.58;100234.25;5030050;28;20048;-56
2021/07/12 09:08:46;;;;;;;0.08;0.08;;;;;;;33.91;27.03;100241.41;5030171;28;20045;-55
2021/07/12 09:11:14;;;;;;;0.10;0.10;;;;;;;33.88;26.87;100243.72;5030138;28;20048;-55
2021/07/12 09:13:43;;;;;;;0.10;0.10;;;;;;;33.85;27.19;100239.59;5029881;28;20049;-57
2021/07/12 09:16:39;;;;;;;0.00;0.00;;;;;;;33.81;26.99;100224.84;5028787;28;20045;-56
2021/07/12 09:19:12;;;;;;;0.10;0.10;;;;;;;33.78;27.02;100236.13;5030141;28;20045;-56
2021/07/12 09:21:41;;;;;;;0.00;0.00;;;;;;;33.72;27.36;100234.31;5030067;28;20422;-56
2021/07/12 09:24:24;;;;;;;0.00;0.00;;;;;;;33.68;26.93;100235.00;5029932;28;20042;-56
2021/07/12 09:26:58;;;;;;;0.05;0.05;;;;;;;33.67;27.19;100244.19;5029383;28;20475;-56
2021/07/12 09:29:26;;;;;;;0.03;0.03;;;;;;;33.65;27.51;100235.44;5029907;28;20091;-56
2021/07/12 09:31:52;;;;;;;0.00;0.00;;;;;;;33.61;27.57;100232.34;5029694;28;20071;-55
2021/07/12 09:34:18;;;;;;;0.22;0.22;;;;;;;33.59;27.77;100231.72;5029449;28;20527;-56
2021/07/12 09:36:47;;;;;;;0.10;0.10;;;;;;;33.59;27.58;100228.19;5028192;28;20049;-54
2021/07/12 09:39:32;;;;;;;0.10;0.10;;;;;;;33.59;27.44;100233.59;5029809;28;20041;-55
2021/07/12 09:42:04;;;;;;;0.10;0.10;;;;;;;33.59;27.63;100234.44;5028323;28;20115;-54
2021/07/12 09:44:30;;;;;;;0.00;0.00;;;;;;;33.53;27.81;100227.22;5028637;28;20042;-55
2021/07/12 09:46:57;;;;;;;0.10;0.10;;;;;;;33.53;27.42;100228.03;5029377;28;20037;-54
2021/07/12 09:49:23;;;;;;;0.00;0.00;;;;;;;33.53;27.88;100238.03;5029626;28;20142;-55
2021/07/12 09:52:00;;;;;;;0.20;0.20;;;;;;;33.50;27.34;100222.25;5029336;28;20045;-54
2021/07/12 09:54:33;;;;;;;0.10;0.10;;;;;;;33.51;27.53;100240.13;5029360;28;20460;-55
2021/07/12 09:57:08;;;;;;;0.00;0.00;;;;;;;33.40;27.68;100228.19;5029309;28;20072;-54
2021/07/12 09:59:36;;;;;;;0.08;0.08;;;;;;;33.48;27.75;100240.59;5028102;28;20034;-54
2021/07/12 10:02:03;;;;;;;0.20;0.20;;;;;;;33.48;27.79;100236.00;5027882;28;20045;-54
2021/07/12 10:04:29;;;;;;;0.00;0.00;;;;;;;33.47;27.96;100238.94;5029360;28;20033;-55
2021/07/12 10:06:55;;;;;;;0.15;0.15;;;;;;;33.46;27.61;100237.28;5029160;28;20099;-56
2021/07/12 10:09:22;;;;;;;0.00;0.00;;;;;;;33.46;27.92;100231.88;5029545;28;20041;-55
2021/07/12 10:11:49;;;;;;;0.10;0.10;;;;;;;33.44;27.46;100229.38;5029131;28;20491;-55
2021/07/12 10:14:16;;;;;;;0.13;0.13;;;;;;;33.44;27.80;100233.97;5029391;28;20527;-55
2021/07/12 10:16:43;;;;;;;0.22;0.22;;;;;;;33.44;27.70;100223.16;5028941;28;20069;-57
2021/07/12 10:19:08;;;;;;;0.10;0.10;;;;;;;33.44;28.15;100225.84;5028167;28;20041;-54
2021/07/12 10:21:39;;;;;;;0.15;0.15;;;;;;;33.41;28.36;100224.41;5029101;28;20510;-54
2021/07/12 10:24:05;;;;;;;0.00;0.00;;;;;;;33.42;28.35;100215.22;5027789;28;20041;-55
2021/07/12 10:26:48;;;;;;;0.00;0.00;;;;;;;33.40;27.98;100211.94;5029068;28;20041;-55
2021/07/12 10:29:33;;;;;;;0.00;0.00;;;;;;;33.41;28.08;100210.84;5028059;28;20037;-56
2021/07/12 10:32:19;;;;;;;0.10;0.10;;;;;;;33.38;28.33;100199.63;5028992;28;20133;-57
2021/07/12 10:34:46;;;;;;;0.20;0.20;;;;;;;33.40;28.11;100208.38;5028519;28;20503;-56
2021/07/12 10:37:15;;;;;;;0.00;0.00;;;;;;;33.40;28.14;100208.38;5029458;28;20407;-57
2021/07/12 10:39:59;;;;;;;;;;;;;;;33.38;28.42;100208.59;5031923;28;20079;-57
2021/07/12 10:42:41;;;;;;;0.00;0.00;;;;;;;33.39;28.26;100212.13;5032781;28;20391;-57
2021/07/12 10:45:22;;;;;;;0.10;0.10;;;;;;;33.37;28.27;100195.28;5032438;28;20549;-56
2021/07/12 10:47:57;;;;;;;0.00;0.00;;;;;;;33.36;28.33;100205.31;5031230;28;20046;-53
2021/07/12 10:50:33;;;;;;;0.00;0.00;;;;;;;33.36;28.62;100199.06;5032579;28;20053;-56
2021/07/12 10:53:00;;;;;;;0.20;0.20;;;;;;;33.34;28.75;100193.03;5032363;28;20045;-56
2021/07/12 10:55:31;;;;;;;0.00;0.00;;;;;;;33.35;28.63;100192.81;5032406;28;20136;-55
2021/07/12 10:58:19;;;;;;;0.00;0.00;;;;;;;33.34;28.75;100198.47;5032133;28;20041;-57
2021/07/12 11:00:46;;;;;;;0.32;0.30;;;;;;;33.35;28.76;100200.09;5032374;28;20041;-56
2021/07/12 11:03:34;;;;;;;0.10;0.10;;;;;;;33.33;28.67;100191.38;5032322;28;20132;-55
2021/07/12 11:06:05;;;;;;;0.10;0.10;;;;;;;33.32;28.52;100189.72;5031973;28;20132;-55
2021/07/12 11:08:44;;;;;;;0.00;0.00;;;;;;;33.31;28.30;100196.19;5031146;28;20057;-57
2021/07/12 11:11:11;;;;;;;0.17;0.17;;;;;;;33.28;28.38;100186.63;5030818;28;20033;-54
2021/07/12 11:13:52;;;;;;;0.00;0.00;;;;;;;33.30;28.35;100195.38;5032308;28;20037;-52
2021/07/12 11:16:42;;;;;;;0.00;0.00;;;;;;;33.29;28.33;100187.44;5032304;28;20092;-57
2021/07/12 11:19:31;;;;;;;0.00;0.00;;;;;;;33.26;28.28;100190.59;5031555;28;20041;-59
2021/07/12 11:22:22;;;;;;;;;;;;;;;33.27;28.74;100194.97;5032220;28;20129;-55
2021/07/12 11:25:10;;;;;;;0.10;0.10;;;;;;;33.22;28.70;100181.28;5030406;28;19948;-53
2021/07/12 11:27:40;;;;;;;0.00;0.00;;;;;;;33.25;28.55;100186.22;5032196;28;20104;-54
2021/07/12 11:30:35;;;;;;;0.10;0.10;;;;;;;33.25;28.81;100187.06;5031750;28;20136;-55
2021/07/12 11:33:01;;;;;;;0.05;0.05;;;;;;;33.24;28.66;100195.44;5031603;28;20513;-57
2021/07/12 11:35:27;;;;;;;0.10;0.10;;;;;;;33.23;28.60;100188.34;5031564;28;20058;-52
2021/07/12 11:38:05;;;;;;;0.10;0.10;;;;;;;33.20;28.77;100184.22;5031486;28;20045;-51
2021/07/12 11:40:32;;;;;;;0.00;0.00;;;;;;;33.18;28.69;100182.78;5031986;28;20041;-55
2021/07/12 11:42:58;;;;;;;0.10;0.10;;;;;;;33.20;28.83;100184.22;5030387;28;20053;-58
2021/07/12 11:45:27;;;;;;;0.10;0.10;;;;;;;33.21;28.81;100187.75;5031714;28;20503;-55
2021/07/12 11:47:56;;;;;;;0.10;0.10;;;;;;;33.22;28.62;100178.56;5031550;28;20052;-54
2021/07/12 11:50:22;;;;;;;0.10;0.10;;;;;;;33.23;28.47;100185.63;5030287;28;20529;-55
2021/07/12 11:52:50;;;;;;;0.00;0.00;;;;;;;33.22;28.83;100175.84;5031316;28;20072;-57
2021/07/12 11:55:18;;;;;;;0.00;0.00;;;;;;;33.10;28.81;100166.81;5031264;28;20100;-55
2021/07/12 11:57:46;;;;;;;0.30;0.30;;;;;;;33.19;28.93;100177.13;5030303;28;20045;-56